Airfield :
LOGIN :

Register | Disclaimer

   EN    FR    IT 

 










Legend :    VFR   Marginal VFR   IFR   Intensive IFR   Very Intensive IFR
Visi :
Ceiling :
>= 8 km
>= 3000ft
5 to 8 km
1000 to 3000 ft
1500m to 5 km
500 to 1000 ft
800 to 1500m
200 to 500 ft
< 800m
< 200 ft
Symbols :   Thunderstorms  Fog  Heavy snow  Heavy precipitations  Wind > 20 kt
SIGMETs :     Misc.  Thunderstorms  Icing  Turbulence  Mountain Waves  Volcanic Ashes







- Airport Elevation : 1989 ft
- IATA code : KLV


LKKV - Karlovy Vary

CURRENT METAR :
  • 181500Z VRB04KT CAVOK 26/11 Q1017

EXPIRED METARs :
  • 181430Z VRB03KT CAVOK 26/10 Q1017
  • 181400Z 28005KT 240V300 CAVOK 25/12 Q1018
  • 181330Z VRB04KT CAVOK 26/12 Q1018
  • 181300Z 29004KT 240V350 CAVOK 26/12 Q1018
  • 181230Z VRB04KT CAVOK 26/11 Q1018
  • 181200Z 31005KT 250V010 CAVOK 25/11 Q1018

TAF TAF LKKV
Valid from the 18 at 12:00 until the 19 at 18:00 UTC


181100Z 1812/1918 30006KT CAVOK
BECMG 1817/1820 16004KT
TEMPO 1904/1908 VRB02KT
BECMG 1908/1910 33005KT
PROB30
TEMPO 1910/1916 30014KT 9000 -SHRA SCT035
No reported NOTAMs for that airfield.



MET'MAP, your aeronautical weather chart ! - Copyright ORBIFLY December 2007 - Disclaimer

ORBIFLY MET'MAP TEAM :

Programming & Development : Alexandra Zaïnal
Concept & Development : Baudouin d'Aumeries
Co-Development & Prog : Marc-Olivier Méhu
Technical & hardware support : Manuel Goepfert

Contact : metmap@orbifly.com




SOURCES & CREDITS :

   NOAA